sensor_id;sensor_type;location;lat;lon;timestamp;pressure;altitude;pressure_sealevel;temperature;humidity
7986;BME280;4038;42.612;23.066;2022-11-14T00:00:44;94115.59;;;7.34;69.86
7986;BME280;4038;42.612;23.066;2022-11-14T00:03:10;94117.28;;;7.50;69.65
7986;BME280;4038;42.612;23.066;2022-11-14T00:05:41;94116.00;;;8.09;68.07
7986;BME280;4038;42.612;23.066;2022-11-14T00:08:14;94114.66;;;8.41;66.65
7986;BME280;4038;42.612;23.066;2022-11-14T00:10:40;94114.50;;;7.90;67.97
7986;BME280;4038;42.612;23.066;2022-11-14T00:13:05;94119.28;;;7.49;68.94
7986;BME280;4038;42.612;23.066;2022-11-14T00:15:31;94116.72;;;6.75;71.89
7986;BME280;4038;42.612;23.066;2022-11-14T00:17:56;94102.69;;;6.54;72.67
7986;BME280;4038;42.612;23.066;2022-11-14T00:20:22;94103.03;;;6.65;72.06
7986;BME280;4038;42.612;23.066;2022-11-14T00:22:47;94111.81;;;7.31;69.77
7986;BME280;4038;42.612;23.066;2022-11-14T00:25:12;94113.94;;;7.36;69.35
7986;BME280;4038;42.612;23.066;2022-11-14T00:27:38;94101.94;;;7.25;69.26
7986;BME280;4038;42.612;23.066;2022-11-14T00:30:03;94104.25;;;6.95;70.26
7986;BME280;4038;42.612;23.066;2022-11-14T00:32:30;94107.63;;;6.69;71.77
7986;BME280;4038;42.612;23.066;2022-11-14T00:34:55;94110.91;;;6.63;71.77
7986;BME280;4038;42.612;23.066;2022-11-14T00:37:21;94115.09;;;6.86;71.02
7986;BME280;4038;42.612;23.066;2022-11-14T00:39:46;94103.72;;;6.79;71.73
7986;BME280;4038;42.612;23.066;2022-11-14T00:42:11;94102.88;;;6.60;72.48
7986;BME280;4038;42.612;23.066;2022-11-14T00:44:37;94106.31;;;7.13;70.72
7986;BME280;4038;42.612;23.066;2022-11-14T00:47:02;94106.91;;;7.17;70.53
7986;BME280;4038;42.612;23.066;2022-11-14T00:49:28;94108.88;;;8.02;67.70
7986;BME280;4038;42.612;23.066;2022-11-14T00:51:53;94092.78;;;8.50;65.66
7986;BME280;4038;42.612;23.066;2022-11-14T00:54:18;94102.97;;;8.31;66.17
7986;BME280;4038;42.612;23.066;2022-11-14T00:56:44;94089.28;;;7.85;66.83
7986;BME280;4038;42.612;23.066;2022-11-14T00:59:09;94097.47;;;7.67;66.60
7986;BME280;4038;42.612;23.066;2022-11-14T01:01:34;94090.66;;;7.63;65.91
7986;BME280;4038;42.612;23.066;2022-11-14T01:04:00;94097.47;;;7.67;66.04
7986;BME280;4038;42.612;23.066;2022-11-14T01:06:25;94105.44;;;7.34;67.18
7986;BME280;4038;42.612;23.066;2022-11-14T01:08:51;94100.50;;;6.18;70.39
7986;BME280;4038;42.612;23.066;2022-11-14T01:11:19;94117.06;;;5.90;73.31
7986;BME280;4038;42.612;23.066;2022-11-14T01:13:45;94098.38;;;5.06;75.43
7986;BME280;4038;42.612;23.066;2022-11-14T01:16:11;94092.09;;;4.97;76.81
7986;BME280;4038;42.612;23.066;2022-11-14T01:18:37;94098.47;;;5.16;76.03
7986;BME280;4038;42.612;23.066;2022-11-14T01:21:08;94102.56;;;5.45;75.18
7986;BME280;4038;42.612;23.066;2022-11-14T01:23:34;94094.75;;;5.35;74.80
7986;BME280;4038;42.612;23.066;2022-11-14T01:26:07;94090.56;;;4.96;77.73
7986;BME280;4038;42.612;23.066;2022-11-14T01:28:33;94098.06;;;4.66;78.44
7986;BME280;4038;42.612;23.066;2022-11-14T01:31:15;94095.25;;;4.95;77.73
7986;BME280;4038;42.612;23.066;2022-11-14T01:33:41;94086.22;;;4.73;78.00
7986;BME280;4038;42.612;23.066;2022-11-14T01:36:07;94080.44;;;4.71;77.26
7986;BME280;4038;42.612;23.066;2022-11-14T01:38:33;94084.56;;;4.38;79.70
7986;BME280;4038;42.612;23.066;2022-11-14T01:40:59;94073.91;;;4.43;80.57
7986;BME280;4038;42.612;23.066;2022-11-14T01:43:28;94046.19;;;4.86;78.75
7986;BME280;4038;42.612;23.066;2022-11-14T01:48:23;94064.75;;;5.95;74.75
7986;BME280;4038;42.612;23.066;2022-11-14T01:50:54;94074.78;;;5.98;74.76
7986;BME280;4038;42.612;23.066;2022-11-14T01:53:22;94079.41;;;6.10;74.29
7986;BME280;4038;42.612;23.066;2022-11-14T01:55:48;94074.44;;;5.96;74.54
7986;BME280;4038;42.612;23.066;2022-11-14T01:58:15;94076.41;;;6.39;73.76
7986;BME280;4038;42.612;23.066;2022-11-14T02:00:41;94075.97;;;6.40;73.43
7986;BME280;4038;42.612;23.066;2022-11-14T02:03:08;94078.06;;;6.14;74.40
7986;BME280;4038;42.612;23.066;2022-11-14T02:05:34;94068.09;;;6.42;74.12
7986;BME280;4038;42.612;23.066;2022-11-14T02:08:00;94077.09;;;6.08;74.22
7986;BME280;4038;42.612;23.066;2022-11-14T02:10:25;94058.16;;;4.89;77.48
7986;BME280;4038;42.612;23.066;2022-11-14T02:12:51;94070.63;;;5.11;75.67
7986;BME280;4038;42.612;23.066;2022-11-14T02:15:17;94065.00;;;4.43;76.27
7986;BME280;4038;42.612;23.066;2022-11-14T02:17:43;94062.69;;;4.41;76.06
7986;BME280;4038;42.612;23.066;2022-11-14T02:22:34;94065.88;;;3.40;82.34
7986;BME280;4038;42.612;23.066;2022-11-14T02:24:59;94068.31;;;3.51;82.15
7986;BME280;4038;42.612;23.066;2022-11-14T02:27:25;94054.50;;;4.03;79.66
7986;BME280;4038;42.612;23.066;2022-11-14T02:29:50;94056.94;;;3.85;80.47
7986;BME280;4038;42.612;23.066;2022-11-14T02:32:16;94057.25;;;3.45;82.95
7986;BME280;4038;42.612;23.066;2022-11-14T02:34:41;94032.16;;;3.41;82.84
7986;BME280;4038;42.612;23.066;2022-11-14T02:37:07;94066.81;;;3.79;82.18
7986;BME280;4038;42.612;23.066;2022-11-14T02:39:32;94065.94;;;3.82;82.56
7986;BME280;4038;42.612;23.066;2022-11-14T02:41:57;94064.50;;;4.06;82.18
7986;BME280;4038;42.612;23.066;2022-11-14T02:44:23;94053.28;;;4.58;79.65
7986;BME280;4038;42.612;23.066;2022-11-14T02:46:48;94053.25;;;4.84;78.06
7986;BME280;4038;42.612;23.066;2022-11-14T02:49:14;94043.56;;;4.83;77.74
7986;BME280;4038;42.612;23.066;2022-11-14T02:51:39;94041.41;;;4.90;76.63
7986;BME280;4038;42.612;23.066;2022-11-14T02:54:05;94037.00;;;4.04;78.54
7986;BME280;4038;42.612;23.066;2022-11-14T02:56:31;94041.50;;;4.23;77.83
7986;BME280;4038;42.612;23.066;2022-11-14T02:58:56;94039.69;;;4.46;76.25
7986;BME280;4038;42.612;23.066;2022-11-14T03:01:22;94036.72;;;4.40;75.82
7986;BME280;4038;42.612;23.066;2022-11-14T03:03:47;94038.31;;;4.00;76.72
7986;BME280;4038;42.612;23.066;2022-11-14T03:06:13;94042.13;;;4.02;77.42
7986;BME280;4038;42.612;23.066;2022-11-14T03:08:38;94035.31;;;4.36;76.26
7986;BME280;4038;42.612;23.066;2022-11-14T03:11:04;94039.69;;;4.46;76.73
7986;BME280;4038;42.612;23.066;2022-11-14T03:13:30;94039.47;;;3.86;79.40
7986;BME280;4038;42.612;23.066;2022-11-14T03:15:55;94043.69;;;3.74;80.59
7986;BME280;4038;42.612;23.066;2022-11-14T03:18:21;94035.25;;;3.56;81.30
7986;BME280;4038;42.612;23.066;2022-11-14T03:20:46;94040.13;;;3.61;81.43
7986;BME280;4038;42.612;23.066;2022-11-14T03:23:12;94027.38;;;4.16;78.92
7986;BME280;4038;42.612;23.066;2022-11-14T03:25:37;94036.09;;;4.49;77.78
7986;BME280;4038;42.612;23.066;2022-11-14T03:28:03;94036.22;;;4.45;77.00
7986;BME280;4038;42.612;23.066;2022-11-14T03:30:29;94032.94;;;4.25;77.43
7986;BME280;4038;42.612;23.066;2022-11-14T03:32:55;94041.31;;;4.43;76.78
7986;BME280;4038;42.612;23.066;2022-11-14T03:35:21;94038.03;;;4.10;77.68
7986;BME280;4038;42.612;23.066;2022-11-14T03:37:47;94034.22;;;4.20;77.67
7986;BME280;4038;42.612;23.066;2022-11-14T03:40:12;94018.41;;;3.48;79.87
7986;BME280;4038;42.612;23.066;2022-11-14T03:42:38;94024.53;;;3.65;79.41
7986;BME280;4038;42.612;23.066;2022-11-14T03:45:03;94026.91;;;3.63;78.81
7986;BME280;4038;42.612;23.066;2022-11-14T03:47:29;94025.34;;;3.49;78.91
7986;BME280;4038;42.612;23.066;2022-11-14T03:49:54;94025.59;;;3.55;78.39
7986;BME280;4038;42.612;23.066;2022-11-14T03:52:20;94016.94;;;3.31;78.97
7986;BME280;4038;42.612;23.066;2022-11-14T03:54:45;94015.97;;;3.67;77.85
7986;BME280;4038;42.612;23.066;2022-11-14T03:57:11;94007.66;;;3.74;77.43
7986;BME280;4038;42.612;23.066;2022-11-14T03:59:36;94009.41;;;3.80;78.43
7986;BME280;4038;42.612;23.066;2022-11-14T04:02:01;94009.25;;;4.51;76.11
7986;BME280;4038;42.612;23.066;2022-11-14T04:04:27;93996.97;;;4.08;76.82
7986;BME280;4038;42.612;23.066;2022-11-14T04:06:53;94002.03;;;4.95;73.03
7986;BME280;4038;42.612;23.066;2022-11-14T04:09:18;94005.97;;;4.81;72.84
7986;BME280;4038;42.612;23.066;2022-11-14T04:11:43;94021.66;;;4.39;74.64
7986;BME280;4038;42.612;23.066;2022-11-14T04:14:09;94016.97;;;4.40;74.65
7986;BME280;4038;42.612;23.066;2022-11-14T04:16:34;94022.50;;;4.49;74.73
7986;BME280;4038;42.612;23.066;2022-11-14T04:19:00;94004.25;;;4.62;73.99
7986;BME280;4038;42.612;23.066;2022-11-14T04:21:25;94010.44;;;4.24;76.67
7986;BME280;4038;42.612;23.066;2022-11-14T04:23:51;94018.34;;;4.06;77.59
7986;BME280;4038;42.612;23.066;2022-11-14T04:26:16;94021.69;;;3.98;78.69
7986;BME280;4038;42.612;23.066;2022-11-14T04:28:42;94018.81;;;4.17;78.14
7986;BME280;4038;42.612;23.066;2022-11-14T04:31:07;94012.94;;;4.19;76.63
7986;BME280;4038;42.612;23.066;2022-11-14T04:33:32;94021.03;;;3.93;77.54
7986;BME280;4038;42.612;23.066;2022-11-14T04:35:58;94017.19;;;3.78;76.76
7986;BME280;4038;42.612;23.066;2022-11-14T04:38:23;94011.78;;;3.49;77.42
7986;BME280;4038;42.612;23.066;2022-11-14T04:40:50;94021.09;;;3.77;76.92
7986;BME280;4038;42.612;23.066;2022-11-14T04:43:16;94018.63;;;3.54;77.64
7986;BME280;4038;42.612;23.066;2022-11-14T04:45:41;94007.72;;;3.70;77.22
7986;BME280;4038;42.612;23.066;2022-11-14T04:48:07;94015.00;;;4.27;76.00
7986;BME280;4038;42.612;23.066;2022-11-14T04:50:32;94014.00;;;3.96;76.37
7986;BME280;4038;42.612;23.066;2022-11-14T04:52:58;94013.22;;;3.96;76.63
7986;BME280;4038;42.612;23.066;2022-11-14T04:55:23;94004.69;;;4.22;76.15
7986;BME280;4038;42.612;23.066;2022-11-14T04:57:53;94020.88;;;4.89;72.90
7986;BME280;4038;42.612;23.066;2022-11-14T05:00:20;94012.59;;;3.63;76.51
7986;BME280;4038;42.612;23.066;2022-11-14T05:02:45;94018.91;;;3.72;76.23
7986;BME280;4038;42.612;23.066;2022-11-14T05:05:11;94024.88;;;3.38;77.12
7986;BME280;4038;42.612;23.066;2022-11-14T05:07:36;94017.44;;;3.26;77.67
7986;BME280;4038;42.612;23.066;2022-11-14T05:10:02;94017.28;;;3.17;77.97
7986;BME280;4038;42.612;23.066;2022-11-14T05:12:28;94019.97;;;3.62;75.87
7986;BME280;4038;42.612;23.066;2022-11-14T05:14:53;94024.41;;;3.11;76.79
7986;BME280;4038;42.612;23.066;2022-11-14T05:17:18;94016.09;;;3.18;76.52
7986;BME280;4038;42.612;23.066;2022-11-14T05:19:44;94014.00;;;3.09;76.41
7986;BME280;4038;42.612;23.066;2022-11-14T05:22:09;94023.00;;;3.35;75.49
7986;BME280;4038;42.612;23.066;2022-11-14T05:24:34;94020.78;;;3.46;74.94
7986;BME280;4038;42.612;23.066;2022-11-14T05:27:00;94017.56;;;3.93;80.13
7986;BME280;4038;42.612;23.066;2022-11-14T05:29:25;94021.16;;;5.04;78.33
7986;BME280;4038;42.612;23.066;2022-11-14T05:31:51;94015.03;;;6.34;79.75
7986;BME280;4038;42.612;23.066;2022-11-14T05:34:16;94017.44;;;6.23;71.55
7986;BME280;4038;42.612;23.066;2022-11-14T05:36:41;94012.00;;;6.01;71.89
7986;BME280;4038;42.612;23.066;2022-11-14T05:39:07;94015.00;;;6.56;71.07
7986;BME280;4038;42.612;23.066;2022-11-14T05:41:32;94019.28;;;6.26;70.41
7986;BME280;4038;42.612;23.066;2022-11-14T05:43:58;94015.03;;;5.13;72.23
7986;BME280;4038;42.612;23.066;2022-11-14T05:46:23;94023.34;;;4.84;72.32
7986;BME280;4038;42.612;23.066;2022-11-14T05:48:48;94028.41;;;4.60;72.99
7986;BME280;4038;42.612;23.066;2022-11-14T05:51:14;94016.09;;;4.55;73.47
7986;BME280;4038;42.612;23.066;2022-11-14T05:53:39;94025.38;;;5.18;72.22
7986;BME280;4038;42.612;23.066;2022-11-14T05:56:09;94033.47;;;4.83;72.92
7986;BME280;4038;42.612;23.066;2022-11-14T05:58:35;94028.47;;;5.63;71.25
7986;BME280;4038;42.612;23.066;2022-11-14T06:01:05;94028.13;;;5.74;70.73
7986;BME280;4038;42.612;23.066;2022-11-14T06:03:36;94032.75;;;5.30;73.15
7986;BME280;4038;42.612;23.066;2022-11-14T06:06:04;94031.81;;;4.98;74.51
7986;BME280;4038;42.612;23.066;2022-11-14T06:08:30;94031.19;;;4.56;77.34
7986;BME280;4038;42.612;23.066;2022-11-14T06:11:00;94036.97;;;4.71;77.95
7986;BME280;4038;42.612;23.066;2022-11-14T06:13:26;94042.97;;;3.99;80.57
7986;BME280;4038;42.612;23.066;2022-11-14T06:15:51;94040.28;;;4.12;80.54
7986;BME280;4038;42.612;23.066;2022-11-14T06:18:17;94036.34;;;4.00;80.89
7986;BME280;4038;42.612;23.066;2022-11-14T06:20:43;94034.31;;;3.75;82.70
7986;BME280;4038;42.612;23.066;2022-11-14T06:23:08;94030.75;;;4.20;81.13
7986;BME280;4038;42.612;23.066;2022-11-14T06:25:33;94047.00;;;3.66;81.92
7986;BME280;4038;42.612;23.066;2022-11-14T06:27:59;94031.38;;;4.11;81.38
7986;BME280;4038;42.612;23.066;2022-11-14T06:30:24;94039.94;;;3.97;81.83
7986;BME280;4038;42.612;23.066;2022-11-14T06:32:55;94032.72;;;4.70;79.40
7986;BME280;4038;42.612;23.066;2022-11-14T06:35:21;94030.34;;;4.59;79.76
7986;BME280;4038;42.612;23.066;2022-11-14T06:37:47;94033.47;;;4.83;81.12
7986;BME280;4038;42.612;23.066;2022-11-14T06:40:12;94025.28;;;5.43;77.35
7986;BME280;4038;42.612;23.066;2022-11-14T06:42:38;94035.31;;;5.46;76.79
7986;BME280;4038;42.612;23.066;2022-11-14T06:45:03;94030.41;;;5.06;77.10
7986;BME280;4038;42.612;23.066;2022-11-14T06:47:29;94030.16;;;5.14;77.99
7986;BME280;4038;42.612;23.066;2022-11-14T06:49:54;94023.72;;;5.33;77.14
7986;BME280;4038;42.612;23.066;2022-11-14T06:52:19;94018.63;;;5.78;74.78
7986;BME280;4038;42.612;23.066;2022-11-14T06:54:46;94025.03;;;6.06;73.64
7986;BME280;4038;42.612;23.066;2022-11-14T06:57:11;94015.59;;;6.20;72.96
7986;BME280;4038;42.612;23.066;2022-11-14T06:59:37;94031.38;;;6.25;72.77
7986;BME280;4038;42.612;23.066;2022-11-14T07:02:02;94023.44;;;6.40;73.03
7986;BME280;4038;42.612;23.066;2022-11-14T07:04:28;94025.59;;;6.94;70.79
7986;BME280;4038;42.612;23.066;2022-11-14T07:06:53;94032.44;;;7.07;70.78
7986;BME280;4038;42.612;23.066;2022-11-14T07:09:18;94024.09;;;6.00;73.86
7986;BME280;4038;42.612;23.066;2022-11-14T07:11:44;94018.28;;;5.76;75.40
7986;BME280;4038;42.612;23.066;2022-11-14T07:14:11;94017.41;;;5.58;75.89
7986;BME280;4038;42.612;23.066;2022-11-14T07:16:36;94015.88;;;5.57;75.72
7986;BME280;4038;42.612;23.066;2022-11-14T07:19:05;94015.63;;;6.29;74.32
7986;BME280;4038;42.612;23.066;2022-11-14T07:21:32;94012.69;;;5.93;75.54
7986;BME280;4038;42.612;23.066;2022-11-14T07:23:58;94013.69;;;6.08;74.58
7986;BME280;4038;42.612;23.066;2022-11-14T07:26:24;94014.13;;;5.84;76.54
7986;BME280;4038;42.612;23.066;2022-11-14T07:28:49;94015.09;;;6.74;73.65
7986;BME280;4038;42.612;23.066;2022-11-14T07:31:17;94020.56;;;7.69;70.61
7986;BME280;4038;42.612;23.066;2022-11-14T07:33:43;94020.25;;;8.03;68.67
7986;BME280;4038;42.612;23.066;2022-11-14T07:36:10;94016.00;;;8.02;69.14
7986;BME280;4038;42.612;23.066;2022-11-14T07:38:36;94010.88;;;8.97;65.79
7986;BME280;4038;42.612;23.066;2022-11-14T07:41:13;94017.19;;;9.13;65.47
7986;BME280;4038;42.612;23.066;2022-11-14T07:43:39;94022.53;;;8.05;68.56
7986;BME280;4038;42.612;23.066;2022-11-14T07:46:10;94009.41;;;8.45;68.42
7986;BME280;4038;42.612;23.066;2022-11-14T07:48:36;94015.94;;;8.39;68.59
7986;BME280;4038;42.612;23.066;2022-11-14T07:51:04;94004.75;;;8.79;67.54
7986;BME280;4038;42.612;23.066;2022-11-14T07:53:30;94008.72;;;8.69;67.97
7986;BME280;4038;42.612;23.066;2022-11-14T07:56:00;93997.34;;;8.61;68.01
7986;BME280;4038;42.612;23.066;2022-11-14T07:58:26;94006.47;;;9.24;65.89
7986;BME280;4038;42.612;23.066;2022-11-14T08:00:51;94005.16;;;10.20;62.76
7986;BME280;4038;42.612;23.066;2022-11-14T08:03:17;94005.56;;;10.04;63.64
7986;BME280;4038;42.612;23.066;2022-11-14T08:05:43;93999.84;;;11.10;60.20
7986;BME280;4038;42.612;23.066;2022-11-14T08:08:09;93980.19;;;10.97;60.67
7986;BME280;4038;42.612;23.066;2022-11-14T08:10:34;93994.78;;;12.04;57.78
7986;BME280;4038;42.612;23.066;2022-11-14T08:13:02;93997.16;;;11.71;58.13
7986;BME280;4038;42.612;23.066;2022-11-14T08:15:28;94003.28;;;13.15;53.84
7986;BME280;4038;42.612;23.066;2022-11-14T08:17:58;94001.59;;;12.92;55.60
7986;BME280;4038;42.612;23.066;2022-11-14T08:20:24;93999.31;;;12.90;54.69
7986;BME280;4038;42.612;23.066;2022-11-14T08:22:54;93999.31;;;12.90;55.16
7986;BME280;4038;42.612;23.066;2022-11-14T08:25:25;93987.63;;;12.12;57.90
7986;BME280;4038;42.612;23.066;2022-11-14T08:27:52;93991.94;;;13.39;55.46
7986;BME280;4038;42.612;23.066;2022-11-14T08:30:17;93985.75;;;13.13;55.84
7986;BME280;4038;42.612;23.066;2022-11-14T08:32:43;93991.72;;;14.13;52.94
7986;BME280;4038;42.612;23.066;2022-11-14T08:35:08;93984.47;;;13.51;55.05
7986;BME280;4038;42.612;23.066;2022-11-14T08:37:33;93983.31;;;13.68;55.28
7986;BME280;4038;42.612;23.066;2022-11-14T08:39:59;93986.00;;;13.63;55.19
7986;BME280;4038;42.612;23.066;2022-11-14T08:42:24;93980.06;;;13.76;55.37
7986;BME280;4038;42.612;23.066;2022-11-14T08:44:50;93968.97;;;14.63;53.45
7986;BME280;4038;42.612;23.066;2022-11-14T08:47:15;93969.69;;;14.19;54.46
7986;BME280;4038;42.612;23.066;2022-11-14T08:49:40;93971.44;;;15.28;52.41
7986;BME280;4038;42.612;23.066;2022-11-14T08:52:06;93961.81;;;16.25;50.19
7986;BME280;4038;42.612;23.066;2022-11-14T08:54:31;93958.41;;;16.49;49.26
7986;BME280;4038;42.612;23.066;2022-11-14T08:56:57;93962.69;;;17.40;47.63
7986;BME280;4038;42.612;23.066;2022-11-14T08:59:22;93949.41;;;18.56;45.50
7986;BME280;4038;42.612;23.066;2022-11-14T09:01:47;93948.59;;;17.86;46.71
7986;BME280;4038;42.612;23.066;2022-11-14T09:04:13;93949.00;;;17.72;46.44
7986;BME280;4038;42.612;23.066;2022-11-14T09:06:38;93951.41;;;17.32;47.69
7986;BME280;4038;42.612;23.066;2022-11-14T09:09:04;93945.78;;;18.80;45.67
7986;BME280;4038;42.612;23.066;2022-11-14T09:11:29;93938.97;;;18.44;43.78
7986;BME280;4038;42.612;23.066;2022-11-14T09:13:55;93931.97;;;19.20;42.36
7986;BME280;4038;42.612;23.066;2022-11-14T09:16:20;93940.25;;;18.93;42.71
7986;BME280;4038;42.612;23.066;2022-11-14T09:18:46;93920.69;;;19.70;40.79
7986;BME280;4038;42.612;23.066;2022-11-14T09:21:11;93925.13;;;19.34;42.03
7986;BME280;4038;42.612;23.066;2022-11-14T09:23:37;93922.78;;;19.25;42.20
7986;BME280;4038;42.612;23.066;2022-11-14T09:26:04;93920.69;;;19.70;41.69
7986;BME280;4038;42.612;23.066;2022-11-14T09:28:29;93920.56;;;19.76;41.51
7986;BME280;4038;42.612;23.066;2022-11-14T09:31:06;93925.28;;;19.68;42.56
7986;BME280;4038;42.612;23.066;2022-11-14T09:33:33;93915.31;;;19.85;41.34
7986;BME280;4038;42.612;23.066;2022-11-14T09:36:00;93913.88;;;19.13;42.91
7986;BME280;4038;42.612;23.066;2022-11-14T09:38:26;93908.25;;;19.45;42.52
7986;BME280;4038;42.612;23.066;2022-11-14T09:46:17;93892.06;;;19.96;41.06
7986;BME280;4038;42.612;23.066;2022-11-14T09:48:44;93892.16;;;20.51;39.58
7986;BME280;4038;42.612;23.066;2022-11-14T09:51:15;93883.69;;;19.96;40.47
7986;BME280;4038;42.612;23.066;2022-11-14T09:53:42;93882.59;;;20.59;39.55
7986;BME280;4038;42.612;23.066;2022-11-14T09:56:26;93878.75;;;20.49;39.76
7986;BME280;4038;42.612;23.066;2022-11-14T09:58:52;93880.09;;;19.75;40.65
7986;BME280;4038;42.612;23.066;2022-11-14T10:08:52;93869.78;;;20.85;38.76
7986;BME280;4038;42.612;23.066;2022-11-14T10:11:46;93861.78;;;21.59;37.44
7986;BME280;4038;42.612;23.066;2022-11-14T10:27:35;93845.41;;;21.63;38.05
7986;BME280;4038;42.612;23.066;2022-11-14T10:30:16;93850.94;;;22.35;36.67
7986;BME280;4038;42.612;23.066;2022-11-14T10:35:41;93840.50;;;22.35;36.74
7986;BME280;4038;42.612;23.066;2022-11-14T10:38:19;93831.59;;;22.52;36.57
7986;BME280;4038;42.612;23.066;2022-11-14T10:40:52;93829.16;;;23.62;34.57
7986;BME280;4038;42.612;23.066;2022-11-14T10:43:27;93824.56;;;23.12;34.89
7986;BME280;4038;42.612;23.066;2022-11-14T10:46:28;93818.03;;;23.95;34.41
7986;BME280;4038;42.612;23.066;2022-11-14T10:48:58;93820.78;;;24.02;33.56
7986;BME280;4038;42.612;23.066;2022-11-14T10:51:40;93817.31;;;23.87;33.83
7986;BME280;4038;42.612;23.066;2022-11-14T10:54:17;93809.41;;;23.30;34.55
7986;BME280;4038;42.612;23.066;2022-11-14T10:56:53;93815.72;;;24.73;32.48
7986;BME280;4038;42.612;23.066;2022-11-14T10:59:19;93799.31;;;24.05;34.03
7986;BME280;4038;42.612;23.066;2022-11-14T11:04:33;93802.75;;;23.88;33.53
7986;BME280;4038;42.612;23.066;2022-11-14T11:09:37;93799.69;;;24.41;32.52
7986;BME280;4038;42.612;23.066;2022-11-14T11:12:45;93789.84;;;23.22;33.25
7986;BME280;4038;42.612;23.066;2022-11-14T11:18:21;93793.63;;;25.02;31.64
7986;BME280;4038;42.612;23.066;2022-11-14T11:21:07;93783.75;;;25.18;30.82
7986;BME280;4038;42.612;23.066;2022-11-14T11:23:35;93784.13;;;25.74;30.46
7986;BME280;4038;42.612;23.066;2022-11-14T11:26:04;93775.13;;;25.41;30.75
7986;BME280;4038;42.612;23.066;2022-11-14T11:28:33;93764.72;;;26.13;29.36
7986;BME280;4038;42.612;23.066;2022-11-14T11:33:34;93763.75;;;24.15;32.28
7986;BME280;4038;42.612;23.066;2022-11-14T11:36:19;93763.19;;;24.17;32.04
7986;BME280;4038;42.612;23.066;2022-11-14T11:38:48;93759.88;;;23.63;32.28
7986;BME280;4038;42.612;23.066;2022-11-14T11:41:32;93751.94;;;23.36;32.50
7986;BME280;4038;42.612;23.066;2022-11-14T11:44:02;93748.44;;;23.13;33.26
7986;BME280;4038;42.612;23.066;2022-11-14T11:46:45;93759.56;;;23.51;32.36
7986;BME280;4038;42.612;23.066;2022-11-14T11:49:18;93750.47;;;24.16;31.85
7986;BME280;4038;42.612;23.066;2022-11-14T11:51:51;93741.50;;;25.16;29.90
7986;BME280;4038;42.612;23.066;2022-11-14T11:54:23;93740.03;;;24.48;31.09
7986;BME280;4038;42.612;23.066;2022-11-14T11:56:53;93729.31;;;23.97;31.63
7986;BME280;4038;42.612;23.066;2022-11-14T11:59:32;93736.78;;;24.77;31.05
7986;BME280;4038;42.612;23.066;2022-11-14T12:02:25;93740.22;;;24.43;31.30
7986;BME280;4038;42.612;23.066;2022-11-14T12:04:53;93737.31;;;24.01;31.86
7986;BME280;4038;42.612;23.066;2022-11-14T12:07:24;93729.72;;;24.51;31.73
7986;BME280;4038;42.612;23.066;2022-11-14T12:09:56;93728.75;;;24.56;31.14
7986;BME280;4038;42.612;23.066;2022-11-14T12:31:36;93712.19;;;26.05;28.48
7986;BME280;4038;42.612;23.066;2022-11-14T12:34:12;93706.31;;;25.67;29.83
7986;BME280;4038;42.612;23.066;2022-11-14T12:36:42;93706.00;;;25.28;29.79
7986;BME280;4038;42.612;23.066;2022-11-14T12:39:24;93707.25;;;24.76;29.95
7986;BME280;4038;42.612;23.066;2022-11-14T12:41:59;93703.63;;;24.08;30.85
7986;BME280;4038;42.612;23.066;2022-11-14T12:58:09;93705.19;;;25.36;28.97
7986;BME280;4038;42.612;23.066;2022-11-14T13:06:33;93702.53;;;25.20;29.16
7986;BME280;4038;42.612;23.066;2022-11-14T13:09:26;93696.81;;;24.94;28.89
7986;BME280;4038;42.612;23.066;2022-11-14T13:11:55;93692.06;;;25.21;28.56
7986;BME280;4038;42.612;23.066;2022-11-14T13:14:55;93700.22;;;25.09;28.60
7986;BME280;4038;42.612;23.066;2022-11-14T13:17:40;93692.91;;;23.97;29.97
7986;BME280;4038;42.612;23.066;2022-11-14T13:23:52;93686.63;;;24.64;29.35
7986;BME280;4038;42.612;23.066;2022-11-14T13:28:48;93681.91;;;26.14;27.45
7986;BME280;4038;42.612;23.066;2022-11-14T13:36:34;93679.28;;;23.61;30.38
7986;BME280;4038;42.612;23.066;2022-11-14T13:41:48;93678.00;;;24.20;29.72
7986;BME280;4038;42.612;23.066;2022-11-14T13:52:45;93684.34;;;23.88;30.21
7986;BME280;4038;42.612;23.066;2022-11-14T13:55:28;93674.72;;;23.73;30.25
7986;BME280;4038;42.612;23.066;2022-11-14T14:06:18;93665.22;;;23.29;25.10
7986;BME280;4038;42.612;23.066;2022-11-14T14:09:05;93661.66;;;22.20;25.93
7986;BME280;4038;42.612;23.066;2022-11-14T14:20:26;93657.56;;;22.06;24.99
7986;BME280;4038;42.612;23.066;2022-11-14T14:23:22;93663.84;;;21.83;24.86
7986;BME280;4038;42.612;23.066;2022-11-14T14:25:57;93659.38;;;21.65;25.33
7986;BME280;4038;42.612;23.066;2022-11-14T14:31:15;93666.03;;;19.98;27.34
7986;BME280;4038;42.612;23.066;2022-11-14T14:33:43;93666.84;;;19.85;27.38
7986;BME280;4038;42.612;23.066;2022-11-14T14:36:21;93667.09;;;19.06;27.80
7986;BME280;4038;42.612;23.066;2022-11-14T14:38:47;93659.41;;;18.99;27.81
7986;BME280;4038;42.612;23.066;2022-11-14T14:41:14;93667.13;;;18.93;28.41
7986;BME280;4038;42.612;23.066;2022-11-14T14:43:49;93660.59;;;18.90;28.80
7986;BME280;4038;42.612;23.066;2022-11-14T14:46:23;93666.31;;;18.58;29.13
7986;BME280;4038;42.612;23.066;2022-11-14T14:48:49;93661.28;;;18.70;29.22
7986;BME280;4038;42.612;23.066;2022-11-14T14:51:28;93662.44;;;18.48;29.85
7986;BME280;4038;42.612;23.066;2022-11-14T14:53:54;93658.03;;;18.26;30.44
7986;BME280;4038;42.612;23.066;2022-11-14T14:56:22;93652.94;;;17.53;31.63
7986;BME280;4038;42.612;23.066;2022-11-14T14:58:49;93654.28;;;17.66;31.25
7986;BME280;4038;42.612;23.066;2022-11-14T15:01:16;93654.66;;;17.88;31.17
7986;BME280;4038;42.612;23.066;2022-11-14T15:03:54;93650.63;;;17.89;30.76
7986;BME280;4038;42.612;23.066;2022-11-14T15:06:37;93651.13;;;16.87;37.46
7986;BME280;4038;42.612;23.066;2022-11-14T15:11:32;93651.25;;;16.32;39.22
7986;BME280;4038;42.612;23.066;2022-11-14T15:13:59;93655.44;;;16.39;41.13
7986;BME280;4038;42.612;23.066;2022-11-14T15:16:26;93649.03;;;16.50;41.16
7986;BME280;4038;42.612;23.066;2022-11-14T15:18:54;93650.53;;;16.51;39.37
7986;BME280;4038;42.612;23.066;2022-11-14T15:23:58;93653.47;;;16.58;38.36
7986;BME280;4038;42.612;23.066;2022-11-14T15:26:24;93647.16;;;15.90;38.90
7986;BME280;4038;42.612;23.066;2022-11-14T15:28:49;93659.06;;;15.80;40.43
7986;BME280;4038;42.612;23.066;2022-11-14T15:31:17;93661.56;;;15.83;41.09
7986;BME280;4038;42.612;23.066;2022-11-14T15:33:44;93649.94;;;15.60;40.97